sensor_id;sensor_type;location;lat;lon;timestamp;temperature;humidity
23403;DHT22;11874;48.228;11.684;2022-11-22T00:00:50;6.00;99.90
23403;DHT22;11874;48.228;11.684;2022-11-22T00:03:18;5.90;99.90
23403;DHT22;11874;48.228;11.684;2022-11-22T00:05:46;5.90;99.90
23403;DHT22;11874;48.228;11.684;2022-11-22T00:08:14;5.90;99.90
23403;DHT22;11874;48.228;11.684;2022-11-22T00:10:43;5.90;99.90
23403;DHT22;11874;48.228;11.684;2022-11-22T00:13:11;5.90;99.90
23403;DHT22;11874;48.228;11.684;2022-11-22T00:15:38;5.90;99.90
23403;DHT22;11874;48.228;11.684;2022-11-22T00:18:07;5.90;99.90
23403;DHT22;11874;48.228;11.684;2022-11-22T00:20:35;5.90;99.90
23403;DHT22;11874;48.228;11.684;2022-11-22T00:23:02;5.90;99.90
23403;DHT22;11874;48.228;11.684;2022-11-22T00:25:30;5.70;99.90
23403;DHT22;11874;48.228;11.684;2022-11-22T00:27:59;5.90;99.90
23403;DHT22;11874;48.228;11.684;2022-11-22T00:30:27;5.90;99.90
23403;DHT22;11874;48.228;11.684;2022-11-22T00:32:55;5.90;99.90
23403;DHT22;11874;48.228;11.684;2022-11-22T00:35:23;5.90;99.90
23403;DHT22;11874;48.228;11.684;2022-11-22T00:37:51;5.90;99.90
23403;DHT22;11874;48.228;11.684;2022-11-22T00:40:19;6.10;99.90
23403;DHT22;11874;48.228;11.684;2022-11-22T00:42:46;5.90;99.90
23403;DHT22;11874;48.228;11.684;2022-11-22T00:45:16;6.00;99.90
23403;DHT22;11874;48.228;11.684;2022-11-22T00:47:44;6.00;99.90
23403;DHT22;11874;48.228;11.684;2022-11-22T00:50:11;6.00;99.90
23403;DHT22;11874;48.228;11.684;2022-11-22T00:52:39;5.90;99.90
23403;DHT22;11874;48.228;11.684;2022-11-22T00:55:07;5.90;99.90
23403;DHT22;11874;48.228;11.684;2022-11-22T00:57:35;5.90;99.90
23403;DHT22;11874;48.228;11.684;2022-11-22T01:00:04;5.90;99.90
23403;DHT22;11874;48.228;11.684;2022-11-22T01:02:34;6.00;99.90
23403;DHT22;11874;48.228;11.684;2022-11-22T01:05:02;5.90;99.90
23403;DHT22;11874;48.228;11.684;2022-11-22T01:07:30;5.90;99.90
23403;DHT22;11874;48.228;11.684;2022-11-22T01:09:58;6.00;99.90
23403;DHT22;11874;48.228;11.684;2022-11-22T01:12:26;6.00;99.90
23403;DHT22;11874;48.228;11.684;2022-11-22T01:14:53;5.90;99.90
23403;DHT22;11874;48.228;11.684;2022-11-22T01:17:21;6.00;99.90
23403;DHT22;11874;48.228;11.684;2022-11-22T01:19:50;5.90;99.90
23403;DHT22;11874;48.228;11.684;2022-11-22T01:22:18;5.90;99.90
23403;DHT22;11874;48.228;11.684;2022-11-22T01:24:46;5.90;99.90
23403;DHT22;11874;48.228;11.684;2022-11-22T01:27:14;5.90;99.90
23403;DHT22;11874;48.228;11.684;2022-11-22T01:29:42;5.90;99.90
23403;DHT22;11874;48.228;11.684;2022-11-22T01:32:10;5.90;99.90
23403;DHT22;11874;48.228;11.684;2022-11-22T01:34:38;5.90;99.90
23403;DHT22;11874;48.228;11.684;2022-11-22T01:37:07;5.90;99.90
23403;DHT22;11874;48.228;11.684;2022-11-22T01:39:35;6.00;99.90
23403;DHT22;11874;48.228;11.684;2022-11-22T01:42:03;6.00;99.90
23403;DHT22;11874;48.228;11.684;2022-11-22T01:44:32;6.00;99.90
23403;DHT22;11874;48.228;11.684;2022-11-22T01:47:03;5.90;99.90
23403;DHT22;11874;48.228;11.684;2022-11-22T01:49:36;6.00;99.90
23403;DHT22;11874;48.228;11.684;2022-11-22T01:52:11;6.00;99.90
23403;DHT22;11874;48.228;11.684;2022-11-22T01:54:43;5.90;99.90
23403;DHT22;11874;48.228;11.684;2022-11-22T01:57:14;5.90;99.90
23403;DHT22;11874;48.228;11.684;2022-11-22T01:59:46;5.80;99.90
23403;DHT22;11874;48.228;11.684;2022-11-22T02:02:16;6.00;99.90
23403;DHT22;11874;48.228;11.684;2022-11-22T02:04:44;5.90;99.90
23403;DHT22;11874;48.228;11.684;2022-11-22T02:07:18;5.90;99.90
23403;DHT22;11874;48.228;11.684;2022-11-22T02:09:50;5.80;99.90
23403;DHT22;11874;48.228;11.684;2022-11-22T02:12:22;6.00;99.90
23403;DHT22;11874;48.228;11.684;2022-11-22T02:14:51;6.00;99.90
23403;DHT22;11874;48.228;11.684;2022-11-22T02:17:20;5.90;99.90
23403;DHT22;11874;48.228;11.684;2022-11-22T02:19:48;6.00;99.90
23403;DHT22;11874;48.228;11.684;2022-11-22T02:22:24;6.10;99.90
23403;DHT22;11874;48.228;11.684;2022-11-22T02:25:01;6.10;99.90
23403;DHT22;11874;48.228;11.684;2022-11-22T02:27:31;6.10;99.90
23403;DHT22;11874;48.228;11.684;2022-11-22T02:29:59;6.10;99.90
23403;DHT22;11874;48.228;11.684;2022-11-22T02:32:27;6.10;99.90
23403;DHT22;11874;48.228;11.684;2022-11-22T02:34:54;6.10;99.90
23403;DHT22;11874;48.228;11.684;2022-11-22T02:37:24;6.00;99.90
23403;DHT22;11874;48.228;11.684;2022-11-22T02:39:57;6.10;99.90
23403;DHT22;11874;48.228;11.684;2022-11-22T02:42:27;6.30;99.90
23403;DHT22;11874;48.228;11.684;2022-11-22T02:44:57;6.10;99.90
23403;DHT22;11874;48.228;11.684;2022-11-22T02:47:25;6.10;99.90
23403;DHT22;11874;48.228;11.684;2022-11-22T02:49:53;6.10;99.90
23403;DHT22;11874;48.228;11.684;2022-11-22T02:52:21;6.20;99.90
23403;DHT22;11874;48.228;11.684;2022-11-22T02:54:49;6.10;99.90
23403;DHT22;11874;48.228;11.684;2022-11-22T02:57:17;6.20;99.90
23403;DHT22;11874;48.228;11.684;2022-11-22T02:59:44;6.20;99.90
23403;DHT22;11874;48.228;11.684;2022-11-22T03:02:14;6.20;99.90
23403;DHT22;11874;48.228;11.684;2022-11-22T03:04:41;6.20;99.90
23403;DHT22;11874;48.228;11.684;2022-11-22T03:07:09;6.30;99.90
23403;DHT22;11874;48.228;11.684;2022-11-22T03:09:37;6.20;99.90
23403;DHT22;11874;48.228;11.684;2022-11-22T03:12:05;6.30;99.90
23403;DHT22;11874;48.228;11.684;2022-11-22T03:14:33;6.30;99.90
23403;DHT22;11874;48.228;11.684;2022-11-22T03:17:01;6.40;99.90
23403;DHT22;11874;48.228;11.684;2022-11-22T03:19:30;6.40;99.90
23403;DHT22;11874;48.228;11.684;2022-11-22T03:21:58;6.50;99.90
23403;DHT22;11874;48.228;11.684;2022-11-22T03:24:26;6.50;99.90
23403;DHT22;11874;48.228;11.684;2022-11-22T03:26:54;6.60;99.90
23403;DHT22;11874;48.228;11.684;2022-11-22T03:29:22;6.60;99.90
23403;DHT22;11874;48.228;11.684;2022-11-22T03:31:50;6.90;99.90
23403;DHT22;11874;48.228;11.684;2022-11-22T03:34:17;6.70;99.90
23403;DHT22;11874;48.228;11.684;2022-11-22T03:36:47;6.70;99.90
23403;DHT22;11874;48.228;11.684;2022-11-22T03:39:14;6.70;99.90
23403;DHT22;11874;48.228;11.684;2022-11-22T03:41:42;6.70;99.90
23403;DHT22;11874;48.228;11.684;2022-11-22T03:44:10;6.80;99.90
23403;DHT22;11874;48.228;11.684;2022-11-22T03:46:38;6.80;99.90
23403;DHT22;11874;48.228;11.684;2022-11-22T03:49:06;6.80;99.90
23403;DHT22;11874;48.228;11.684;2022-11-22T03:51:34;6.80;99.90
23403;DHT22;11874;48.228;11.684;2022-11-22T03:54:03;6.90;99.90
23403;DHT22;11874;48.228;11.684;2022-11-22T03:56:31;6.90;99.90
23403;DHT22;11874;48.228;11.684;2022-11-22T03:58:59;6.80;99.90
23403;DHT22;11874;48.228;11.684;2022-11-22T04:01:27;6.90;99.90
23403;DHT22;11874;48.228;11.684;2022-11-22T04:03:55;6.90;99.90
23403;DHT22;11874;48.228;11.684;2022-11-22T04:06:23;6.90;99.90
23403;DHT22;11874;48.228;11.684;2022-11-22T04:08:51;6.90;99.90
23403;DHT22;11874;48.228;11.684;2022-11-22T04:11:20;6.90;99.90
23403;DHT22;11874;48.228;11.684;2022-11-22T04:13:48;6.90;99.90
23403;DHT22;11874;48.228;11.684;2022-11-22T04:16:33;6.90;99.90
23403;DHT22;11874;48.228;11.684;2022-11-22T04:19:01;6.90;99.90
23403;DHT22;11874;48.228;11.684;2022-11-22T04:21:29;7.00;99.90
23403;DHT22;11874;48.228;11.684;2022-11-22T04:24:03;6.90;99.90
23403;DHT22;11874;48.228;11.684;2022-11-22T04:26:51;7.00;99.90
23403;DHT22;11874;48.228;11.684;2022-11-22T04:29:19;7.00;99.90
23403;DHT22;11874;48.228;11.684;2022-11-22T04:31:47;7.00;99.90
23403;DHT22;11874;48.228;11.684;2022-11-22T04:34:34;7.00;99.90
23403;DHT22;11874;48.228;11.684;2022-11-22T04:37:03;7.00;99.90
23403;DHT22;11874;48.228;11.684;2022-11-22T04:39:31;7.00;99.90
23403;DHT22;11874;48.228;11.684;2022-11-22T04:42:00;7.00;99.90
23403;DHT22;11874;48.228;11.684;2022-11-22T04:44:45;7.00;99.90
23403;DHT22;11874;48.228;11.684;2022-11-22T04:47:15;7.00;99.90
23403;DHT22;11874;48.228;11.684;2022-11-22T04:50:06;7.10;99.90
23403;DHT22;11874;48.228;11.684;2022-11-22T04:52:55;7.10;99.90
23403;DHT22;11874;48.228;11.684;2022-11-22T04:55:23;7.10;99.90
23403;DHT22;11874;48.228;11.684;2022-11-22T04:57:52;7.10;99.90
23403;DHT22;11874;48.228;11.684;2022-11-22T05:00:27;6.90;99.90
23403;DHT22;11874;48.228;11.684;2022-11-22T05:02:56;7.10;99.90
23403;DHT22;11874;48.228;11.684;2022-11-22T05:05:25;7.10;99.90
23403;DHT22;11874;48.228;11.684;2022-11-22T05:07:53;7.10;99.90
23403;DHT22;11874;48.228;11.684;2022-11-22T05:10:21;7.10;99.90
23403;DHT22;11874;48.228;11.684;2022-11-22T05:12:54;7.10;99.90
23403;DHT22;11874;48.228;11.684;2022-11-22T05:15:22;7.10;99.90
23403;DHT22;11874;48.228;11.684;2022-11-22T05:17:50;7.10;99.90
23403;DHT22;11874;48.228;11.684;2022-11-22T05:20:18;7.10;99.90
23403;DHT22;11874;48.228;11.684;2022-11-22T05:22:46;7.10;99.90
23403;DHT22;11874;48.228;11.684;2022-11-22T05:25:31;7.10;99.90
23403;DHT22;11874;48.228;11.684;2022-11-22T05:28:00;7.10;99.90
23403;DHT22;11874;48.228;11.684;2022-11-22T05:30:28;7.10;99.90
23403;DHT22;11874;48.228;11.684;2022-11-22T05:32:56;7.10;99.90
23403;DHT22;11874;48.228;11.684;2022-11-22T05:35:24;7.10;99.90
23403;DHT22;11874;48.228;11.684;2022-11-22T05:37:52;7.10;99.90
23403;DHT22;11874;48.228;11.684;2022-11-22T05:40:22;7.10;99.90
23403;DHT22;11874;48.228;11.684;2022-11-22T05:42:50;7.10;99.90
23403;DHT22;11874;48.228;11.684;2022-11-22T05:45:19;7.00;99.90
23403;DHT22;11874;48.228;11.684;2022-11-22T05:47:47;7.10;99.90
23403;DHT22;11874;48.228;11.684;2022-11-22T05:50:15;7.10;99.90
23403;DHT22;11874;48.228;11.684;2022-11-22T05:52:43;7.10;99.90
23403;DHT22;11874;48.228;11.684;2022-11-22T05:55:11;7.10;99.90
23403;DHT22;11874;48.228;11.684;2022-11-22T05:57:39;7.10;99.90
23403;DHT22;11874;48.228;11.684;2022-11-22T06:00:08;7.10;99.90
23403;DHT22;11874;48.228;11.684;2022-11-22T06:02:37;7.10;99.90
23403;DHT22;11874;48.228;11.684;2022-11-22T06:05:05;7.10;99.90
23403;DHT22;11874;48.228;11.684;2022-11-22T06:07:33;7.10;99.90
23403;DHT22;11874;48.228;11.684;2022-11-22T06:10:02;7.10;99.90
23403;DHT22;11874;48.228;11.684;2022-11-22T06:12:30;7.20;99.90
23403;DHT22;11874;48.228;11.684;2022-11-22T06:14:57;7.20;99.90
23403;DHT22;11874;48.228;11.684;2022-11-22T06:17:25;7.20;99.90
23403;DHT22;11874;48.228;11.684;2022-11-22T06:19:54;7.20;99.90
23403;DHT22;11874;48.228;11.684;2022-11-22T06:22:29;7.20;99.90
23403;DHT22;11874;48.228;11.684;2022-11-22T06:24:57;7.20;99.90
23403;DHT22;11874;48.228;11.684;2022-11-22T06:27:25;7.20;99.90
23403;DHT22;11874;48.228;11.684;2022-11-22T06:29:53;7.20;99.90
23403;DHT22;11874;48.228;11.684;2022-11-22T06:32:21;7.20;99.90
23403;DHT22;11874;48.228;11.684;2022-11-22T06:34:49;7.20;99.90
23403;DHT22;11874;48.228;11.684;2022-11-22T06:37:18;7.00;99.90
23403;DHT22;11874;48.228;11.684;2022-11-22T06:39:46;7.00;99.90
23403;DHT22;11874;48.228;11.684;2022-11-22T06:42:14;7.10;99.90
23403;DHT22;11874;48.228;11.684;2022-11-22T06:44:41;7.10;99.90
23403;DHT22;11874;48.228;11.684;2022-11-22T06:47:09;7.40;99.90
23403;DHT22;11874;48.228;11.684;2022-11-22T06:49:37;7.10;99.90
23403;DHT22;11874;48.228;11.684;2022-11-22T06:52:07;7.10;99.90
23403;DHT22;11874;48.228;11.684;2022-11-22T06:54:36;7.40;99.90
23403;DHT22;11874;48.228;11.684;2022-11-22T06:57:04;7.30;99.90
23403;DHT22;11874;48.228;11.684;2022-11-22T06:59:33;7.10;99.90
23403;DHT22;11874;48.228;11.684;2022-11-22T07:02:01;7.10;99.90
23403;DHT22;11874;48.228;11.684;2022-11-22T07:04:32;7.10;99.90
23403;DHT22;11874;48.228;11.684;2022-11-22T07:07:00;7.10;99.90
23403;DHT22;11874;48.228;11.684;2022-11-22T07:09:28;7.10;99.90
23403;DHT22;11874;48.228;11.684;2022-11-22T07:11:57;7.10;99.90
23403;DHT22;11874;48.228;11.684;2022-11-22T07:14:25;7.00;99.90
23403;DHT22;11874;48.228;11.684;2022-11-22T07:16:53;7.10;99.90
23403;DHT22;11874;48.228;11.684;2022-11-22T07:19:21;7.10;99.90
23403;DHT22;11874;48.228;11.684;2022-11-22T07:21:48;7.10;99.90
23403;DHT22;11874;48.228;11.684;2022-11-22T07:24:16;7.10;99.90
23403;DHT22;11874;48.228;11.684;2022-11-22T07:26:44;7.20;99.90
23403;DHT22;11874;48.228;11.684;2022-11-22T07:29:13;7.00;99.90
23403;DHT22;11874;48.228;11.684;2022-11-22T07:31:44;7.10;99.90
23403;DHT22;11874;48.228;11.684;2022-11-22T07:34:12;7.10;99.90
23403;DHT22;11874;48.228;11.684;2022-11-22T07:36:41;7.10;99.90
23403;DHT22;11874;48.228;11.684;2022-11-22T07:39:09;7.10;99.90
23403;DHT22;11874;48.228;11.684;2022-11-22T07:41:37;7.10;99.90
23403;DHT22;11874;48.228;11.684;2022-11-22T07:44:05;7.10;99.90
23403;DHT22;11874;48.228;11.684;2022-11-22T07:46:34;7.50;99.90
23403;DHT22;11874;48.228;11.684;2022-11-22T07:49:02;7.10;99.90
23403;DHT22;11874;48.228;11.684;2022-11-22T07:51:30;7.10;99.90
23403;DHT22;11874;48.228;11.684;2022-11-22T07:53:58;7.50;99.90
23403;DHT22;11874;48.228;11.684;2022-11-22T07:56:26;7.20;99.90
23403;DHT22;11874;48.228;11.684;2022-11-22T07:58:54;7.40;99.90
23403;DHT22;11874;48.228;11.684;2022-11-22T08:01:22;7.20;99.90
23403;DHT22;11874;48.228;11.684;2022-11-22T08:03:51;7.20;99.90
23403;DHT22;11874;48.228;11.684;2022-11-22T08:06:19;7.30;99.90
23403;DHT22;11874;48.228;11.684;2022-11-22T08:08:47;7.20;99.90
23403;DHT22;11874;48.228;11.684;2022-11-22T08:11:15;7.20;99.90
23403;DHT22;11874;48.228;11.684;2022-11-22T08:13:43;7.20;99.90
23403;DHT22;11874;48.228;11.684;2022-11-22T08:16:13;7.20;99.90
23403;DHT22;11874;48.228;11.684;2022-11-22T08:18:46;7.20;99.90
23403;DHT22;11874;48.228;11.684;2022-11-22T08:21:17;7.20;99.90
23403;DHT22;11874;48.228;11.684;2022-11-22T08:23:45;7.20;99.90
23403;DHT22;11874;48.228;11.684;2022-11-22T08:26:15;7.10;99.90
23403;DHT22;11874;48.228;11.684;2022-11-22T08:28:44;7.20;99.90
23403;DHT22;11874;48.228;11.684;2022-11-22T08:31:14;7.30;99.90
23403;DHT22;11874;48.228;11.684;2022-11-22T08:33:42;7.20;99.90
23403;DHT22;11874;48.228;11.684;2022-11-22T08:36:10;7.20;99.90
23403;DHT22;11874;48.228;11.684;2022-11-22T08:38:40;7.20;99.90
23403;DHT22;11874;48.228;11.684;2022-11-22T08:41:09;7.20;99.90
23403;DHT22;11874;48.228;11.684;2022-11-22T08:43:37;7.10;99.90
23403;DHT22;11874;48.228;11.684;2022-11-22T08:46:05;7.60;99.90
23403;DHT22;11874;48.228;11.684;2022-11-22T08:48:34;7.20;99.90
23403;DHT22;11874;48.228;11.684;2022-11-22T08:51:04;7.30;99.90
23403;DHT22;11874;48.228;11.684;2022-11-22T08:53:33;7.20;99.90
23403;DHT22;11874;48.228;11.684;2022-11-22T08:56:05;7.20;99.90
23403;DHT22;11874;48.228;11.684;2022-11-22T08:58:35;7.30;99.90
23403;DHT22;11874;48.228;11.684;2022-11-22T09:01:04;7.70;99.90
23403;DHT22;11874;48.228;11.684;2022-11-22T09:03:33;7.30;99.90
23403;DHT22;11874;48.228;11.684;2022-11-22T09:06:01;7.30;99.90
23403;DHT22;11874;48.228;11.684;2022-11-22T09:08:50;7.30;99.90
23403;DHT22;11874;48.228;11.684;2022-11-22T09:11:40;7.30;99.90
23403;DHT22;11874;48.228;11.684;2022-11-22T09:14:07;7.40;99.90
23403;DHT22;11874;48.228;11.684;2022-11-22T09:16:35;7.40;99.90
23403;DHT22;11874;48.228;11.684;2022-11-22T09:19:03;7.40;99.90
23403;DHT22;11874;48.228;11.684;2022-11-22T09:21:31;7.50;99.90
23403;DHT22;11874;48.228;11.684;2022-11-22T09:23:59;7.40;99.90
23403;DHT22;11874;48.228;11.684;2022-11-22T09:26:28;7.40;99.90
23403;DHT22;11874;48.228;11.684;2022-11-22T09:28:57;7.40;99.90
23403;DHT22;11874;48.228;11.684;2022-11-22T09:31:25;7.40;99.90
23403;DHT22;11874;48.228;11.684;2022-11-22T09:33:53;7.40;99.90
23403;DHT22;11874;48.228;11.684;2022-11-22T09:36:22;7.40;99.90
23403;DHT22;11874;48.228;11.684;2022-11-22T09:38:52;7.40;99.90
23403;DHT22;11874;48.228;11.684;2022-11-22T09:41:41;7.40;99.90
23403;DHT22;11874;48.228;11.684;2022-11-22T09:44:18;7.40;99.90
23403;DHT22;11874;48.228;11.684;2022-11-22T09:46:52;7.40;99.90
23403;DHT22;11874;48.228;11.684;2022-11-22T09:49:26;7.40;99.90
23403;DHT22;11874;48.228;11.684;2022-11-22T09:52:01;7.40;99.90
23403;DHT22;11874;48.228;11.684;2022-11-22T09:54:37;7.50;99.90
23403;DHT22;11874;48.228;11.684;2022-11-22T09:57:12;7.40;99.90
23403;DHT22;11874;48.228;11.684;2022-11-22T09:59:45;7.40;99.90
23403;DHT22;11874;48.228;11.684;2022-11-22T10:02:18;7.60;99.90
23403;DHT22;11874;48.228;11.684;2022-11-22T10:04:52;7.50;99.90
23403;DHT22;11874;48.228;11.684;2022-11-22T10:07:26;7.50;99.90
23403;DHT22;11874;48.228;11.684;2022-11-22T10:10:02;7.50;99.90
23403;DHT22;11874;48.228;11.684;2022-11-22T10:12:36;7.50;99.90
23403;DHT22;11874;48.228;11.684;2022-11-22T10:15:14;7.50;99.90
23403;DHT22;11874;48.228;11.684;2022-11-22T10:17:51;7.50;99.90
23403;DHT22;11874;48.228;11.684;2022-11-22T10:20:21;7.50;99.90
23403;DHT22;11874;48.228;11.684;2022-11-22T10:22:49;7.50;99.90
23403;DHT22;11874;48.228;11.684;2022-11-22T10:25:19;7.50;99.90
23403;DHT22;11874;48.228;11.684;2022-11-22T10:27:51;7.50;99.90
23403;DHT22;11874;48.228;11.684;2022-11-22T10:30:31;7.50;99.90
23403;DHT22;11874;48.228;11.684;2022-11-22T10:33:04;7.50;99.90
23403;DHT22;11874;48.228;11.684;2022-11-22T10:35:50;7.50;99.90
23403;DHT22;11874;48.228;11.684;2022-11-22T10:38:41;7.50;99.90
23403;DHT22;11874;48.228;11.684;2022-11-22T10:41:25;7.50;99.90
23403;DHT22;11874;48.228;11.684;2022-11-22T10:44:04;7.50;99.90
23403;DHT22;11874;48.228;11.684;2022-11-22T10:46:43;7.50;99.90
23403;DHT22;11874;48.228;11.684;2022-11-22T10:49:36;7.60;99.90
23403;DHT22;11874;48.228;11.684;2022-11-22T10:52:14;7.50;99.90
23403;DHT22;11874;48.228;11.684;2022-11-22T10:54:47;7.60;99.90
23403;DHT22;11874;48.228;11.684;2022-11-22T10:57:28;7.60;99.90
23403;DHT22;11874;48.228;11.684;2022-11-22T11:00:12;7.60;99.90
23403;DHT22;11874;48.228;11.684;2022-11-22T11:03:06;7.60;99.90
23403;DHT22;11874;48.228;11.684;2022-11-22T11:05:40;7.60;99.90
23403;DHT22;11874;48.228;11.684;2022-11-22T11:08:31;7.60;99.90
23403;DHT22;11874;48.228;11.684;2022-11-22T11:11:23;7.60;99.90
23403;DHT22;11874;48.228;11.684;2022-11-22T11:13:54;7.60;99.90
23403;DHT22;11874;48.228;11.684;2022-11-22T11:16:25;7.70;99.90
23403;DHT22;11874;48.228;11.684;2022-11-22T11:19:04;7.70;99.90
23403;DHT22;11874;48.228;11.684;2022-11-22T11:21:34;7.70;99.90
23403;DHT22;11874;48.228;11.684;2022-11-22T11:24:02;7.90;99.90
23403;DHT22;11874;48.228;11.684;2022-11-22T11:26:34;7.70;99.90
23403;DHT22;11874;48.228;11.684;2022-11-22T11:32:10;7.70;99.90
23403;DHT22;11874;48.228;11.684;2022-11-22T11:34:42;7.70;99.90
23403;DHT22;11874;48.228;11.684;2022-11-22T11:37:22;7.70;99.90
23403;DHT22;11874;48.228;11.684;2022-11-22T11:39:50;7.90;99.90
23403;DHT22;11874;48.228;11.684;2022-11-22T11:42:23;7.70;99.90
23403;DHT22;11874;48.228;11.684;2022-11-22T11:44:51;8.10;99.90
23403;DHT22;11874;48.228;11.684;2022-11-22T11:47:31;7.70;99.90
23403;DHT22;11874;48.228;11.684;2022-11-22T11:50:00;7.80;99.90
23403;DHT22;11874;48.228;11.684;2022-11-22T11:52:28;7.80;99.90
23403;DHT22;11874;48.228;11.684;2022-11-22T11:54:59;7.70;99.90
23403;DHT22;11874;48.228;11.684;2022-11-22T11:57:30;7.70;99.90
23403;DHT22;11874;48.228;11.684;2022-11-22T12:00:02;7.80;99.90
23403;DHT22;11874;48.228;11.684;2022-11-22T12:02:34;7.80;99.90
23403;DHT22;11874;48.228;11.684;2022-11-22T12:05:24;7.80;99.90
23403;DHT22;11874;48.228;11.684;2022-11-22T12:07:52;7.80;99.90
23403;DHT22;11874;48.228;11.684;2022-11-22T12:10:36;7.80;99.90
23403;DHT22;11874;48.228;11.684;2022-11-22T12:13:14;7.80;99.90
23403;DHT22;11874;48.228;11.684;2022-11-22T12:15:50;7.80;99.90
23403;DHT22;11874;48.228;11.684;2022-11-22T12:18:40;7.70;99.90
23403;DHT22;11874;48.228;11.684;2022-11-22T12:21:21;7.70;99.90
23403;DHT22;11874;48.228;11.684;2022-11-22T12:23:55;7.70;99.90
23403;DHT22;11874;48.228;11.684;2022-11-22T12:26:44;7.70;99.90
23403;DHT22;11874;48.228;11.684;2022-11-22T12:29:13;7.70;99.90
23403;DHT22;11874;48.228;11.684;2022-11-22T12:31:46;7.70;99.90
23403;DHT22;11874;48.228;11.684;2022-11-22T12:34:19;7.70;99.90
23403;DHT22;11874;48.228;11.684;2022-11-22T12:36:53;7.70;99.90
23403;DHT22;11874;48.228;11.684;2022-11-22T12:39:25;7.70;99.90
23403;DHT22;11874;48.228;11.684;2022-11-22T12:41:58;7.70;99.90
23403;DHT22;11874;48.228;11.684;2022-11-22T12:44:32;7.70;99.90
23403;DHT22;11874;48.228;11.684;2022-11-22T12:47:05;7.70;99.90
23403;DHT22;11874;48.228;11.684;2022-11-22T12:49:36;7.70;99.90
23403;DHT22;11874;48.228;11.684;2022-11-22T12:52:14;7.70;99.90
23403;DHT22;11874;48.228;11.684;2022-11-22T12:54:57;7.70;99.90
23403;DHT22;11874;48.228;11.684;2022-11-22T12:57:34;7.60;99.90
23403;DHT22;11874;48.228;11.684;2022-11-22T13:00:11;7.60;99.90
23403;DHT22;11874;48.228;11.684;2022-11-22T13:02:45;7.60;99.90
23403;DHT22;11874;48.228;11.684;2022-11-22T13:05:26;7.60;99.90
23403;DHT22;11874;48.228;11.684;2022-11-22T13:08:02;7.60;99.90
23403;DHT22;11874;48.228;11.684;2022-11-22T13:10:37;7.60;99.90
23403;DHT22;11874;48.228;11.684;2022-11-22T13:13:09;7.60;99.90
23403;DHT22;11874;48.228;11.684;2022-11-22T13:15:40;7.60;99.90
23403;DHT22;11874;48.228;11.684;2022-11-22T13:18:14;7.60;99.90
23403;DHT22;11874;48.228;11.684;2022-11-22T13:20:48;7.60;99.90
23403;DHT22;11874;48.228;11.684;2022-11-22T13:23:34;7.60;99.90
23403;DHT22;11874;48.228;11.684;2022-11-22T13:26:07;7.60;99.90
23403;DHT22;11874;48.228;11.684;2022-11-22T13:28:41;7.60;99.90
23403;DHT22;11874;48.228;11.684;2022-11-22T13:31:16;7.70;99.90
23403;DHT22;11874;48.228;11.684;2022-11-22T13:33:55;7.60;99.90
23403;DHT22;11874;48.228;11.684;2022-11-22T13:36:36;7.70;99.90
23403;DHT22;11874;48.228;11.684;2022-11-22T13:39:11;7.70;99.90
23403;DHT22;11874;48.228;11.684;2022-11-22T13:41:46;7.60;99.90
23403;DHT22;11874;48.228;11.684;2022-11-22T13:44:24;7.60;99.90
23403;DHT22;11874;48.228;11.684;2022-11-22T13:46:55;7.60;99.90
23403;DHT22;11874;48.228;11.684;2022-11-22T13:49:37;7.60;99.90
23403;DHT22;11874;48.228;11.684;2022-11-22T13:55:31;7.60;99.90
23403;DHT22;11874;48.228;11.684;2022-11-22T13:58:42;7.60;99.90
23403;DHT22;11874;48.228;11.684;2022-11-22T14:04:27;7.60;99.90
23403;DHT22;11874;48.228;11.684;2022-11-22T14:07:01;7.60;99.90
23403;DHT22;11874;48.228;11.684;2022-11-22T14:09:37;7.60;99.90
23403;DHT22;11874;48.228;11.684;2022-11-22T14:12:36;7.60;99.90
23403;DHT22;11874;48.228;11.684;2022-11-22T14:15:16;7.60;99.90
23403;DHT22;11874;48.228;11.684;2022-11-22T14:17:52;7.60;99.90
23403;DHT22;11874;48.228;11.684;2022-11-22T14:20:34;7.60;99.90
23403;DHT22;11874;48.228;11.684;2022-11-22T14:23:11;7.60;99.90
23403;DHT22;11874;48.228;11.684;2022-11-22T14:25:54;7.60;99.90
23403;DHT22;11874;48.228;11.684;2022-11-22T14:28:50;7.70;99.90
23403;DHT22;11874;48.228;11.684;2022-11-22T14:31:26;7.70;99.90
23403;DHT22;11874;48.228;11.684;2022-11-22T14:34:14;7.60;99.90
23403;DHT22;11874;48.228;11.684;2022-11-22T14:36:43;7.70;99.90
23403;DHT22;11874;48.228;11.684;2022-11-22T14:39:49;7.60;99.90
23403;DHT22;11874;48.228;11.684;2022-11-22T14:42:45;7.60;99.90
23403;DHT22;11874;48.228;11.684;2022-11-22T14:45:20;7.70;99.90
23403;DHT22;11874;48.228;11.684;2022-11-22T14:47:57;7.60;99.90
23403;DHT22;11874;48.228;11.684;2022-11-22T14:50:29;7.60;99.90
23403;DHT22;11874;48.228;11.684;2022-11-22T14:53:03;7.60;99.90
23403;DHT22;11874;48.228;11.684;2022-11-22T14:55:34;7.70;99.90
23403;DHT22;11874;48.228;11.684;2022-11-22T14:58:05;7.60;99.90
23403;DHT22;11874;48.228;11.684;2022-11-22T15:00:44;7.60;99.90
23403;DHT22;11874;48.228;11.684;2022-11-22T15:03:31;7.60;99.90
23403;DHT22;11874;48.228;11.684;2022-11-22T15:06:18;7.60;99.90
23403;DHT22;11874;48.228;11.684;2022-11-22T15:09:36;7.60;99.90
23403;DHT22;11874;48.228;11.684;2022-11-22T15:12:27;7.60;99.90
23403;DHT22;11874;48.228;11.684;2022-11-22T15:15:27;7.60;99.90
23403;DHT22;11874;48.228;11.684;2022-11-22T15:18:22;7.50;99.90
23403;DHT22;11874;48.228;11.684;2022-11-22T15:21:23;7.60;99.90
23403;DHT22;11874;48.228;11.684;2022-11-22T15:24:23;7.60;99.90
23403;DHT22;11874;48.228;11.684;2022-11-22T15:27:23;7.60;99.90
23403;DHT22;11874;48.228;11.684;2022-11-22T15:30:13;7.60;99.90
23403;DHT22;11874;48.228;11.684;2022-11-22T15:33:02;7.50;99.90
23403;DHT22;11874;48.228;11.684;2022-11-22T15:36:02;7.50;99.90
23403;DHT22;11874;48.228;11.684;2022-11-22T15:38:54;7.50;99.90
23403;DHT22;11874;48.228;11.684;2022-11-22T15:41:47;7.50;99.90
23403;DHT22;11874;48.228;11.684;2022-11-22T15:44:36;7.50;99.90
23403;DHT22;11874;48.228;11.684;2022-11-22T15:47:24;7.50;99.90
23403;DHT22;11874;48.228;11.684;2022-11-22T15:50:15;7.50;99.90
23403;DHT22;11874;48.228;11.684;2022-11-22T15:53:18;7.50;99.90
23403;DHT22;11874;48.228;11.684;2022-11-22T15:56:14;7.50;99.90
23403;DHT22;11874;48.228;11.684;2022-11-22T15:59:08;7.50;99.90
23403;DHT22;11874;48.228;11.684;2022-11-22T16:01:38;7.50;99.90
23403;DHT22;11874;48.228;11.684;2022-11-22T16:04:19;7.50;99.90
23403;DHT22;11874;48.228;11.684;2022-11-22T16:06:48;7.50;99.90
23403;DHT22;11874;48.228;11.684;2022-11-22T16:09:30;7.50;99.90
23403;DHT22;11874;48.228;11.684;2022-11-22T16:12:01;7.50;99.90
23403;DHT22;11874;48.228;11.684;2022-11-22T16:17:28;7.50;99.90
23403;DHT22;11874;48.228;11.684;2022-11-22T16:20:25;7.50;99.90